Pebble Beach, CA (93953)

8:36 AM PDT on March 30, 2017 (GMT -0700)
Coast @ Lone Cypress, Pebble Beach | | Change Station
Active Advisory: Wind Advisory

Elev 92 ft 36.57 °N, 121.97 °W | Updated 3 minutes ago

Partly Cloudy
Partly Cloudy
54.1 °F
Feels Like 54.1 °F
N
2.0
Wind Variable Wind from North
Gusts 10.0 mph

Today
High -- | Low -- °F
--% Chance of Precip.
Yesterday
High -- | Low -- °F
Precip. -- in
Pressure 30.17 in
Visibility 7.0 miles
Clouds Scattered Clouds 2200 ft
Mostly Cloudy 3100 ft
Dew Point Not available.
Humidity Not available.
Rainfall 0.02 in
Snow Depth Not available.
6:56 AM 7:28 PM
Waxing Crescent, 9% visible
METAR KMRY 301454Z 27013G23KT 7SM SCT022 BKN031 12/08 A3014 RMK AO2 PK WND 28027/1436 SLP217 60001 T01170083 53003
Pressure 30.17 in
Visibility 7.0 miles
Clouds Scattered Clouds 2200 ft
Mostly Cloudy 3100 ft
Dew Point Not available.
Humidity Not available.
Rainfall 0.02 in
Snow Depth Not available.
6:56 AM 7:28 PM
Waxing Crescent, 9% visible
METAR KMRY 301454Z 27013G23KT 7SM SCT022 BKN031 12/08 A3014 RMK AO2 PK WND 28027/1436 SLP217 60001 T01170083 53003

Get Your Daily Forecast Email!

Thanks for signing up!

Be on the lookout for a verification email in your inbox.

You'll start receiving severe weather alerts in your inbox..

×

10-Day Weather Forecast

Almanac

Astronomy

Mar. 30, 2017 Rise Set
Actual Time
Civil Twilight
Nautical Twilight
Astronomical Twilight
Moon
Length of Visible Light
Length of Day
Tomorrow will be .
, % of the Moon is Illuminated

Today's Extremes

State Highs State Lows

Community

WunderPhotos

Upload Photos

1,962,540 photos uploaded!

WunderBlog® & News

Nearby

Air Quality

  Air Quality AQ Index Pollutant
Not available.

Snow Depth

Station Depth Elevation

Earthquake Activity

City Distance Mag. Time & Date
Minimum magnitude displayed is 2.5.

Earthquake Activity

City Distance Mag. Time & Date
Minimum magnitude displayed is 2.5.

Coastal Water Temperatures

Place Temperature

Stations

Nearby Weather Stations

Station Location Temp. Windchill Dew Point Humidity Wind Precip. Elev Updated Type
                   

Watches & Warnings

Wind Advisory
Issued: 12:35 AM PDT Mar. 30, 2017 – National Weather Service

... Wind Advisory remains in effect from noon today to 8 PM PDT
this evening...

* timing... winds will increase by midday Thursday and remain
strong and gusty into Thursday evening. Strongest winds are
expected from mid afternoon through early evening Thursday.

* Winds... northwest winds of 20 to 30 mph are forecast along
with gusts up to 45 mph.

* Impacts... possible downed trees and limbs, blowing debris, and
local power outages.

Precautionary/preparedness actions...

A Wind Advisory means that wind gusts of at least 45 mph are
expected. Winds this strong can make driving difficult...
especially for high profile vehicles. Use extra caution.